createdAt,value
2023-03-16T00:02:11.834Z,90.30
2023-03-16T00:04:40.339Z,90.20
2023-03-16T00:07:10.858Z,90.30
2023-03-16T00:09:41.425Z,90.00
2023-03-16T00:12:18.868Z,90.40
2023-03-16T00:14:48.975Z,90.30
2023-03-16T00:17:19.693Z,90.30
2023-03-16T00:19:55.740Z,90.30
2023-03-16T00:22:25.769Z,90.20
2023-03-16T00:24:53.213Z,90.30
2023-03-16T00:27:22.654Z,89.70
2023-03-16T00:29:55.826Z,90.40
2023-03-16T00:32:30.218Z,90.60
2023-03-16T00:34:58.182Z,90.20
2023-03-16T00:37:28.238Z,90.30
2023-03-16T00:39:56.424Z,90.20
2023-03-16T00:42:29.783Z,90.30
2023-03-16T00:44:58.300Z,90.20
2023-03-16T00:47:31.479Z,89.90
2023-03-16T00:49:59.553Z,90.30
2023-03-16T00:52:27.760Z,90.30
2023-03-16T00:54:56.099Z,90.30
2023-03-16T00:57:25.840Z,90.30
2023-03-16T00:59:52.909Z,90.30
2023-03-16T01:02:23.545Z,90.30
2023-03-16T01:04:51.798Z,88.80
2023-03-16T01:07:19.601Z,90.40
2023-03-16T01:09:46.442Z,90.40
2023-03-16T01:12:18.130Z,88.90
2023-03-16T01:14:46.005Z,90.20
2023-03-16T01:17:14.852Z,89.10
2023-03-16T01:19:42.118Z,90.20
2023-03-16T01:22:11.748Z,90.20
2023-03-16T01:24:40.077Z,90.20
2023-03-16T01:27:08.355Z,88.70
2023-03-16T01:29:35.917Z,90.20
2023-03-16T01:32:04.237Z,90.20
2023-03-16T01:34:32.128Z,90.30
2023-03-16T01:36:59.506Z,90.20
2023-03-16T01:39:28.514Z,90.20
2023-03-16T01:41:55.425Z,90.20
2023-03-16T01:44:30.558Z,90.20
2023-03-16T01:46:57.776Z,90.10
2023-03-16T01:49:28.874Z,90.10
2023-03-16T01:52:10.029Z,88.40
2023-03-16T01:54:46.253Z,90.00
2023-03-16T01:57:19.318Z,90.10
2023-03-16T02:00:19.617Z,88.90
2023-03-16T02:02:52.894Z,90.00
2023-03-16T02:05:37.491Z,88.10
2023-03-16T02:08:05.706Z,89.80
2023-03-16T02:10:33.891Z,90.00
2023-03-16T02:13:01.625Z,90.20
2023-03-16T02:15:28.605Z,89.90
2023-03-16T02:18:00.651Z,90.30
2023-03-16T02:20:46.900Z,90.20
2023-03-16T02:23:19.002Z,89.90
2023-03-16T02:26:01.833Z,88.30
2023-03-16T02:28:45.119Z,90.00
2023-03-16T02:31:12.392Z,90.00
2023-03-16T02:33:40.722Z,90.20
2023-03-16T02:36:07.978Z,90.20
2023-03-16T02:38:34.991Z,89.70
2023-03-16T02:41:15.997Z,88.40
2023-03-16T02:43:53.126Z,90.00
2023-03-16T02:46:28.029Z,90.00
2023-03-16T02:49:27.803Z,89.90
2023-03-16T02:51:54.847Z,87.90
2023-03-16T02:54:21.645Z,90.10
2023-03-16T02:56:48.445Z,90.10
2023-03-16T02:59:15.406Z,88.00
2023-03-16T03:01:42.286Z,90.10
2023-03-16T03:04:09.403Z,90.10
2023-03-16T03:06:36.425Z,90.10
2023-03-16T03:09:04.325Z,90.10
2023-03-16T03:11:31.461Z,90.00
2023-03-16T03:13:58.437Z,88.10
2023-03-16T03:16:25.571Z,90.00
2023-03-16T03:18:55.580Z,90.00
2023-03-16T03:21:23.975Z,90.10
2023-03-16T03:23:50.905Z,90.00
2023-03-16T03:26:18.421Z,90.00
2023-03-16T03:28:45.857Z,90.10
2023-03-16T03:31:21.575Z,90.10
2023-03-16T03:33:49.143Z,90.00
2023-03-16T03:38:44.353Z,89.70
2023-03-16T03:41:11.233Z,88.10
2023-03-16T03:43:38.019Z,90.10
2023-03-16T03:46:05.721Z,90.10
2023-03-16T03:48:33.669Z,90.10
2023-03-16T03:51:01.072Z,90.10
2023-03-16T03:53:27.880Z,89.00
2023-03-16T03:55:54.617Z,89.20
2023-03-16T03:58:21.388Z,90.10
2023-03-16T04:00:48.153Z,90.00
2023-03-16T04:03:15.093Z,90.20
2023-03-16T04:05:42.164Z,90.20
2023-03-16T04:08:08.970Z,90.20
2023-03-16T04:10:36.000Z,88.30
2023-03-16T04:13:02.768Z,90.20
2023-03-16T04:15:32.928Z,90.20
2023-03-16T04:18:00.022Z,90.20
2023-03-16T04:20:27.098Z,90.30
2023-03-16T04:22:58.653Z,90.00
2023-03-16T04:25:27.285Z,90.30
2023-03-16T04:27:54.458Z,89.60
2023-03-16T04:30:23.421Z,89.40
2023-03-16T04:32:50.989Z,90.30
2023-03-16T04:35:18.482Z,89.80
2023-03-16T04:37:45.249Z,90.30
2023-03-16T04:40:15.689Z,90.30
2023-03-16T04:42:44.071Z,90.30
2023-03-16T04:45:12.231Z,90.20
2023-03-16T04:47:39.262Z,90.30
2023-03-16T04:50:07.934Z,90.30
2023-03-16T04:52:35.690Z,90.30
2023-03-16T04:55:02.582Z,90.10
2023-03-16T04:57:30.436Z,90.30
2023-03-16T04:59:57.337Z,90.30
2023-03-16T05:02:24.499Z,90.30
2023-03-16T05:04:51.316Z,90.30
2023-03-16T05:07:18.372Z,90.30
2023-03-16T05:09:45.120Z,88.60
2023-03-16T05:12:11.961Z,90.30
2023-03-16T05:14:38.914Z,88.70
2023-03-16T05:17:05.894Z,89.50
2023-03-16T05:19:32.645Z,90.40
2023-03-16T05:21:59.483Z,89.60
2023-03-16T05:24:26.676Z,90.40
2023-03-16T05:26:53.528Z,90.50
2023-03-16T05:29:20.322Z,89.20
2023-03-16T05:31:47.748Z,90.50
2023-03-16T05:34:15.297Z,90.50
2023-03-16T05:36:42.360Z,90.50
2023-03-16T05:39:09.197Z,90.20
2023-03-16T05:41:36.043Z,90.60
2023-03-16T05:46:31.467Z,90.40
2023-03-16T05:48:58.206Z,90.60
2023-03-16T05:51:29.120Z,90.20
2023-03-16T05:53:59.019Z,90.70
2023-03-16T05:56:28.239Z,90.60
2023-03-16T05:58:57.260Z,90.60
2023-03-16T06:01:24.649Z,90.60
2023-03-16T06:03:52.443Z,90.60
2023-03-16T06:06:22.558Z,90.60
2023-03-16T06:08:49.564Z,89.50
2023-03-16T06:11:17.677Z,89.60
2023-03-16T06:13:44.436Z,90.70
2023-03-16T06:16:14.174Z,90.70
2023-03-16T06:18:41.280Z,89.30
2023-03-16T06:21:08.227Z,90.70
2023-03-16T06:23:35.225Z,90.70
2023-03-16T06:26:01.979Z,90.70
2023-03-16T06:28:28.804Z,89.50
2023-03-16T06:30:57.535Z,90.80
2023-03-16T06:33:25.253Z,90.80
2023-03-16T06:35:52.200Z,90.80
2023-03-16T06:38:19.799Z,90.80
2023-03-16T06:40:51.636Z,90.70
2023-03-16T06:43:18.433Z,90.80
2023-03-16T06:45:45.286Z,89.30
2023-03-16T06:48:12.219Z,90.80
2023-03-16T06:50:38.963Z,90.80
2023-03-16T06:53:06.563Z,90.80
2023-03-16T06:55:33.396Z,90.20
2023-03-16T06:58:00.190Z,89.70
2023-03-16T07:00:27.280Z,90.60
2023-03-16T07:02:54.963Z,90.50
2023-03-16T07:05:21.722Z,90.50
2023-03-16T07:07:48.593Z,90.40
2023-03-16T07:10:17.934Z,89.60
2023-03-16T07:12:45.366Z,90.20
2023-03-16T07:15:13.287Z,90.20
2023-03-16T07:17:41.196Z,90.10
2023-03-16T07:20:10.544Z,90.00
2023-03-16T07:22:39.503Z,90.10
2023-03-16T07:25:07.603Z,89.80
2023-03-16T07:27:34.465Z,89.80
2023-03-16T07:30:01.200Z,89.50
2023-03-16T07:32:28.059Z,89.50
2023-03-16T07:34:54.850Z,89.30
2023-03-16T07:37:25.501Z,89.30
2023-03-16T07:39:52.671Z,88.30
2023-03-16T07:42:19.910Z,88.90
2023-03-16T07:47:14.190Z,88.00
2023-03-16T07:49:41.757Z,88.30
2023-03-16T07:52:08.942Z,88.20
2023-03-16T07:54:36.030Z,87.80
2023-03-16T07:57:02.862Z,87.50
2023-03-16T07:59:29.665Z,87.10
2023-03-16T08:01:56.453Z,86.80
2023-03-16T08:04:23.388Z,86.70
2023-03-16T08:06:52.408Z,86.60
2023-03-16T08:09:19.423Z,86.90
2023-03-16T08:11:46.175Z,86.90
2023-03-16T08:14:13.246Z,86.60
2023-03-16T08:16:40.081Z,86.80
2023-03-16T08:19:07.089Z,86.70
2023-03-16T08:21:35.124Z,86.40
2023-03-16T08:24:05.074Z,86.10
2023-03-16T08:26:31.807Z,85.80
2023-03-16T08:29:02.530Z,86.20
2023-03-16T08:31:30.362Z,85.90
2023-03-16T08:36:24.569Z,85.20
2023-03-16T08:39:05.980Z,84.10
2023-03-16T08:41:34.711Z,84.30
2023-03-16T08:44:03.142Z,84.70
2023-03-16T08:46:30.873Z,85.00
2023-03-16T08:48:57.710Z,84.80
2023-03-16T08:51:24.942Z,84.80
2023-03-16T08:56:19.603Z,83.60
2023-03-16T08:58:46.481Z,84.00
2023-03-16T09:01:17.548Z,83.80
2023-03-16T09:03:46.265Z,82.70
2023-03-16T09:06:17.048Z,82.00
2023-03-16T09:08:45.999Z,80.90
2023-03-16T09:11:17.736Z,80.90
2023-03-16T09:13:47.024Z,80.80
2023-03-16T09:16:15.753Z,81.40
2023-03-16T09:18:43.445Z,80.70
2023-03-16T09:21:13.785Z,81.00
2023-03-16T09:23:42.678Z,80.90
2023-03-16T09:26:12.549Z,80.90
2023-03-16T09:28:42.212Z,80.00
2023-03-16T09:31:16.760Z,79.40
2023-03-16T09:36:11.899Z,78.20
2023-03-16T09:38:39.317Z,79.40
2023-03-16T09:41:34.362Z,78.50
2023-03-16T09:44:29.249Z,77.20
2023-03-16T09:47:01.573Z,78.00
2023-03-16T09:49:47.724Z,77.40
2023-03-16T09:52:33.614Z,76.80
2023-03-16T09:55:17.897Z,76.10
2023-03-16T09:57:46.434Z,75.30
2023-03-16T10:01:07.634Z,72.90
2023-03-16T10:04:09.984Z,74.00
2023-03-16T10:07:09.830Z,75.30
2023-03-16T10:09:45.967Z,75.00
2023-03-16T10:12:16.271Z,76.10
2023-03-16T10:15:09.276Z,76.00
2023-03-16T10:17:50.068Z,73.40
2023-03-16T10:20:24.371Z,75.10
2023-03-16T10:22:52.996Z,74.60
2023-03-16T10:25:35.621Z,74.80
2023-03-16T10:28:02.427Z,72.50
2023-03-16T10:30:36.230Z,74.50
2023-03-16T10:33:29.986Z,72.10
2023-03-16T10:36:19.478Z,70.50
2023-03-16T10:38:58.828Z,70.30
2023-03-16T10:41:35.508Z,71.50
2023-03-16T10:44:16.869Z,70.30
2023-03-16T10:46:54.096Z,69.30
2023-03-16T10:49:27.545Z,70.80
2023-03-16T10:51:59.529Z,71.00
2023-03-16T10:54:39.928Z,70.10
2023-03-16T10:57:41.468Z,69.60
2023-03-16T11:00:12.846Z,68.10
2023-03-16T11:02:40.637Z,70.60
2023-03-16T11:05:19.442Z,70.50
2023-03-16T11:08:02.602Z,67.70
2023-03-16T11:10:46.029Z,67.60
2023-03-16T11:13:21.299Z,68.80
2023-03-16T11:15:58.958Z,69.60
2023-03-16T11:18:42.597Z,67.20
2023-03-16T11:21:17.330Z,66.40
2023-03-16T11:23:56.407Z,68.90
2023-03-16T11:26:33.609Z,67.40
2023-03-16T11:29:48.719Z,68.80
2023-03-16T11:32:26.186Z,66.40
2023-03-16T11:34:54.013Z,68.70
2023-03-16T11:37:46.185Z,69.20
2023-03-16T11:40:38.441Z,65.00
2023-03-16T11:43:52.778Z,67.70
2023-03-16T11:46:40.861Z,65.60
2023-03-16T11:49:35.439Z,67.20
2023-03-16T11:52:17.218Z,65.80
2023-03-16T11:55:10.532Z,65.80
2023-03-16T11:58:00.654Z,66.90
2023-03-16T12:01:07.449Z,66.80
2023-03-16T12:04:16.206Z,64.60
2023-03-16T12:07:06.597Z,62.80
2023-03-16T12:10:06.871Z,65.20
2023-03-16T12:13:04.869Z,63.30
2023-03-16T12:15:50.003Z,65.40
2023-03-16T12:18:31.275Z,65.50
2023-03-16T12:21:07.186Z,64.00
2023-03-16T12:23:43.280Z,64.80
2023-03-16T12:28:42.201Z,65.30
2023-03-16T12:31:41.834Z,65.10
2023-03-16T12:34:49.209Z,64.30
2023-03-16T12:37:34.849Z,61.80
2023-03-16T12:40:15.677Z,64.70
2023-03-16T12:43:14.605Z,64.80
2023-03-16T12:46:11.730Z,61.60
2023-03-16T12:48:47.582Z,60.80
2023-03-16T12:51:14.553Z,63.90
2023-03-16T12:53:55.741Z,62.30
2023-03-16T12:56:31.338Z,58.80
2023-03-16T12:59:03.728Z,61.80
2023-03-16T13:01:41.460Z,62.90
2023-03-16T13:04:15.772Z,62.30
2023-03-16T13:06:48.371Z,62.70
2023-03-16T13:09:27.398Z,63.30
2023-03-16T13:11:54.401Z,62.30
2023-03-16T13:14:43.926Z,63.30
2023-03-16T13:17:16.903Z,60.40
2023-03-16T13:20:18.225Z,60.60
2023-03-16T13:23:18.429Z,58.50
2023-03-16T13:26:15.728Z,60.30
2023-03-16T13:28:50.346Z,59.90
2023-03-16T13:31:35.983Z,62.00
2023-03-16T13:34:05.689Z,61.20
2023-03-16T13:36:34.957Z,62.40
2023-03-16T13:39:18.865Z,61.30
2023-03-16T13:42:03.887Z,60.40
2023-03-16T13:44:32.184Z,60.30
2023-03-16T13:47:07.364Z,61.30
2023-03-16T13:49:47.356Z,60.00
2023-03-16T13:52:25.536Z,59.90
2023-03-16T13:54:53.777Z,60.10
2023-03-16T13:57:25.589Z,61.50
2023-03-16T14:00:01.037Z,61.20
2023-03-16T14:02:27.848Z,60.90
2023-03-16T14:04:54.919Z,60.30
2023-03-16T14:07:23.839Z,61.10
2023-03-16T14:09:52.432Z,59.60
2023-03-16T14:12:20.053Z,60.10
2023-03-16T14:14:54.734Z,60.10
2023-03-16T14:17:24.038Z,60.30
2023-03-16T14:20:00.197Z,60.50
2023-03-16T14:22:37.694Z,59.50
2023-03-16T14:25:07.694Z,59.00
2023-03-16T14:27:43.888Z,59.70
2023-03-16T14:30:25.854Z,59.00
2023-03-16T14:33:02.531Z,57.80
2023-03-16T14:35:43.020Z,58.00
2023-03-16T14:38:33.546Z,58.10
2023-03-16T14:41:12.271Z,56.40
2023-03-16T14:43:47.075Z,58.10
2023-03-16T14:46:31.306Z,57.60
2023-03-16T14:49:29.731Z,57.60
2023-03-16T14:52:04.703Z,56.60
2023-03-16T14:54:31.473Z,58.10
2023-03-16T14:57:05.668Z,59.00
2023-03-16T14:59:33.425Z,58.60
2023-03-16T15:02:03.344Z,57.80
2023-03-16T15:04:37.204Z,59.30
2023-03-16T15:07:34.524Z,56.10
2023-03-16T15:10:15.419Z,56.30
2023-03-16T15:12:50.648Z,57.50
2023-03-16T15:15:20.388Z,57.70
2023-03-16T15:17:48.176Z,57.10
2023-03-16T15:20:20.205Z,55.70
2023-03-16T15:22:51.038Z,56.50
2023-03-16T15:25:23.887Z,57.70
2023-03-16T15:27:52.849Z,56.80
2023-03-16T15:30:30.603Z,57.00
2023-03-16T15:32:58.170Z,56.10
2023-03-16T15:35:25.070Z,56.30
2023-03-16T15:37:52.367Z,56.80
2023-03-16T15:40:28.934Z,57.00
2023-03-16T15:42:55.878Z,56.50
2023-03-16T15:45:23.511Z,54.40
2023-03-16T15:47:53.768Z,56.60
2023-03-16T15:50:24.606Z,56.50
2023-03-16T15:52:59.954Z,56.80
2023-03-16T15:55:47.226Z,56.40
2023-03-16T15:58:24.393Z,54.60
2023-03-16T16:00:57.200Z,55.90
2023-03-16T16:03:25.953Z,56.10
2023-03-16T16:05:53.364Z,55.60
2023-03-16T16:08:21.439Z,56.60
2023-03-16T16:10:50.637Z,56.80
2023-03-16T16:13:43.790Z,56.60
2023-03-16T16:16:17.801Z,54.80
2023-03-16T16:18:46.704Z,55.30
2023-03-16T16:21:23.046Z,55.40
2023-03-16T16:23:52.211Z,55.10
2023-03-16T16:26:50.892Z,55.50
2023-03-16T16:29:32.445Z,54.50
2023-03-16T16:32:00.070Z,55.10
2023-03-16T16:34:27.960Z,56.50
2023-03-16T16:36:56.395Z,54.10
2023-03-16T16:39:23.914Z,56.40
2023-03-16T16:41:54.667Z,56.40
2023-03-16T16:44:27.233Z,56.30
2023-03-16T16:46:54.865Z,56.70
2023-03-16T16:49:28.481Z,56.80
2023-03-16T16:51:55.389Z,56.70
2023-03-16T16:54:26.143Z,56.80
2023-03-16T16:56:56.229Z,56.90
2023-03-16T16:59:33.322Z,57.10
2023-03-16T17:02:22.896Z,56.70
2023-03-16T17:04:50.876Z,55.90
2023-03-16T17:07:18.032Z,57.20
2023-03-16T17:09:45.111Z,57.20
2023-03-16T17:12:23.515Z,57.20
2023-03-16T17:14:51.242Z,56.40
2023-03-16T17:17:18.733Z,56.30
2023-03-16T17:19:47.079Z,57.10
2023-03-16T17:22:26.474Z,55.70
2023-03-16T17:27:31.482Z,56.80
2023-03-16T17:29:58.834Z,57.20
2023-03-16T17:32:26.024Z,57.10
2023-03-16T17:37:23.362Z,57.20
2023-03-16T17:39:51.232Z,57.70
2023-03-16T17:42:20.339Z,57.60
2023-03-16T17:44:52.894Z,57.20
2023-03-16T17:47:24.420Z,57.70
2023-03-16T17:49:52.298Z,57.70
2023-03-16T17:52:25.797Z,57.80
2023-03-16T17:54:54.223Z,57.70
2023-03-16T17:57:32.469Z,57.60
2023-03-16T18:00:08.887Z,57.30
2023-03-16T18:02:51.463Z,57.70
2023-03-16T18:05:34.773Z,57.70
2023-03-16T18:08:20.541Z,57.00
2023-03-16T18:10:52.314Z,57.50
2023-03-16T18:13:35.115Z,57.80
2023-03-16T18:16:03.232Z,57.10
2023-03-16T18:18:35.675Z,58.00
2023-03-16T18:21:03.369Z,54.30
2023-03-16T18:23:34.601Z,57.30
2023-03-16T18:26:06.341Z,57.80
2023-03-16T18:28:34.940Z,55.40
2023-03-16T18:31:05.027Z,57.70
2023-03-16T18:33:40.990Z,57.40
2023-03-16T18:36:17.657Z,57.20
2023-03-16T18:38:49.253Z,56.90
2023-03-16T18:41:23.210Z,57.10
2023-03-16T18:43:51.925Z,56.80
2023-03-16T18:46:33.230Z,55.50
2023-03-16T18:49:26.986Z,57.80
2023-03-16T18:51:54.842Z,56.30
2023-03-16T18:54:27.704Z,57.60
2023-03-16T18:56:54.932Z,57.40
2023-03-16T18:59:21.950Z,57.50
2023-03-16T19:01:48.761Z,54.70
2023-03-16T19:04:35.887Z,56.60
2023-03-16T19:07:28.610Z,55.80
2023-03-16T19:09:55.560Z,57.30
2023-03-16T19:12:22.986Z,56.10
2023-03-16T19:14:49.870Z,57.20
2023-03-16T19:17:16.658Z,57.10
2023-03-16T19:19:43.417Z,57.90
2023-03-16T19:22:21.230Z,54.60
2023-03-16T19:24:54.001Z,56.60
2023-03-16T19:27:25.597Z,57.10
2023-03-16T19:29:54.598Z,54.90
2023-03-16T19:32:22.302Z,57.30
2023-03-16T19:34:49.519Z,57.70
2023-03-16T19:37:19.163Z,57.60
2023-03-16T19:39:46.393Z,57.20
2023-03-16T19:42:26.177Z,57.20
2023-03-16T19:44:52.958Z,56.80
2023-03-16T19:47:31.161Z,55.40
2023-03-16T19:49:59.125Z,57.10
2023-03-16T19:52:30.724Z,57.30
2023-03-16T19:54:57.502Z,55.30
2023-03-16T19:57:24.480Z,57.60
2023-03-16T19:59:56.881Z,57.50
2023-03-16T20:02:40.387Z,56.90
2023-03-16T20:05:12.189Z,56.80
2023-03-16T20:07:38.998Z,57.00
2023-03-16T20:10:06.894Z,57.60
2023-03-16T20:12:36.982Z,57.70
2023-03-16T20:15:04.154Z,57.90
2023-03-16T20:17:32.855Z,56.70
2023-03-16T20:19:59.693Z,57.80
2023-03-16T20:22:28.602Z,57.20
2023-03-16T20:24:57.958Z,56.00
2023-03-16T20:27:26.884Z,57.80
2023-03-16T20:29:53.684Z,57.50
2023-03-16T20:32:25.214Z,57.50
2023-03-16T20:34:53.611Z,57.90
2023-03-16T20:37:30.008Z,55.80
2023-03-16T20:39:59.091Z,57.60
2023-03-16T20:42:34.665Z,56.90
2023-03-16T20:45:02.680Z,57.40
2023-03-16T20:47:29.412Z,58.00
2023-03-16T20:50:00.238Z,57.80
2023-03-16T20:52:30.830Z,57.10
2023-03-16T20:54:58.177Z,58.00
2023-03-16T20:57:27.418Z,58.30
2023-03-16T20:59:55.364Z,56.50
2023-03-16T21:02:29.658Z,58.00
2023-03-16T21:04:58.498Z,56.70
2023-03-16T21:07:25.408Z,58.20
2023-03-16T21:09:52.674Z,57.80
2023-03-16T21:12:35.642Z,56.00
2023-03-16T21:15:16.088Z,57.60
2023-03-16T21:17:43.082Z,58.30
2023-03-16T21:20:20.245Z,57.20
2023-03-16T21:22:47.103Z,58.00
2023-03-16T21:25:26.592Z,58.70
2023-03-16T21:27:55.486Z,58.40
2023-03-16T21:30:31.812Z,58.90
2023-03-16T21:33:01.829Z,58.40
2023-03-16T21:35:34.562Z,57.90
2023-03-16T21:38:11.707Z,58.20
2023-03-16T21:40:38.714Z,58.20
2023-03-16T21:45:33.369Z,57.80
2023-03-16T21:48:00.229Z,58.40
2023-03-16T21:50:33.336Z,58.50
2023-03-16T21:53:00.151Z,58.70
2023-03-16T21:55:29.963Z,58.80
2023-03-16T21:57:58.668Z,58.80
2023-03-16T22:00:34.344Z,58.80
2023-03-16T22:03:01.551Z,59.00
2023-03-16T22:05:40.958Z,58.30
2023-03-16T22:08:20.288Z,58.70
2023-03-16T22:10:47.552Z,58.70
2023-03-16T22:13:14.439Z,58.20
2023-03-16T22:15:43.560Z,59.40
2023-03-16T22:18:36.884Z,58.30
2023-03-16T22:21:32.639Z,57.90
2023-03-16T22:24:01.596Z,59.60
2023-03-16T22:26:29.609Z,59.30
2023-03-16T22:28:57.271Z,59.60
2023-03-16T22:31:34.591Z,58.10
2023-03-16T22:34:03.943Z,59.50
2023-03-16T22:36:32.820Z,59.50
2023-03-16T22:39:08.690Z,59.00
2023-03-16T22:41:35.537Z,59.50
2023-03-16T22:44:02.359Z,60.00
2023-03-16T22:46:29.872Z,59.60
2023-03-16T22:48:57.824Z,60.30
2023-03-16T22:51:36.350Z,59.80
2023-03-16T22:54:08.876Z,59.40
2023-03-16T22:56:36.074Z,60.20
2023-03-16T22:59:07.577Z,60.20
2023-03-16T23:01:39.492Z,60.40
2023-03-16T23:04:19.897Z,60.30
2023-03-16T23:06:50.363Z,59.70
2023-03-16T23:09:20.403Z,58.70
2023-03-16T23:11:53.604Z,60.40
2023-03-16T23:14:24.641Z,60.70
2023-03-16T23:16:52.604Z,60.70
2023-03-16T23:19:32.737Z,60.60
2023-03-16T23:22:06.218Z,59.10
2023-03-16T23:24:35.060Z,60.60
2023-03-16T23:27:03.727Z,60.70
2023-03-16T23:29:31.759Z,60.50
2023-03-16T23:34:26.414Z,60.40
2023-03-16T23:36:53.157Z,60.20
2023-03-16T23:39:19.928Z,61.30
2023-03-16T23:41:49.921Z,61.20
2023-03-16T23:44:25.518Z,61.40
2023-03-16T23:46:53.217Z,61.20
2023-03-16T23:49:30.548Z,61.50
2023-03-16T23:51:59.822Z,61.70
2023-03-16T23:54:30.728Z,61.80
2023-03-16T23:56:57.929Z,61.40
2023-03-16T23:59:27.362Z,61.90
